createdAt,value
2019-04-14T00:00:46.842Z,90.04
2019-04-14T00:01:45.791Z,90.56
2019-04-14T00:02:46.879Z,90.77
2019-04-14T00:03:45.796Z,90.14
2019-04-14T00:04:46.570Z,90.14
2019-04-14T00:05:45.757Z,90.04
2019-04-14T00:06:46.294Z,90.04
2019-04-14T00:07:47.064Z,89.52
2019-04-14T00:08:45.925Z,89.73
2019-04-14T00:09:45.733Z,90.25
2019-04-14T00:10:46.447Z,91.24
2019-04-14T00:11:45.999Z,90.52
2019-04-14T00:12:46.946Z,90.14
2019-04-14T00:13:45.727Z,90.35
2019-04-14T00:14:46.678Z,89.94
2019-04-14T00:15:48.786Z,89.83
2019-04-14T00:16:46.704Z,90.14
2019-04-14T00:17:45.704Z,89.37
2019-04-14T00:18:46.873Z,89.89
2019-04-14T00:19:45.729Z,90.10
2019-04-14T00:20:45.585Z,89.79
2019-04-14T00:21:45.572Z,90.00
2019-04-14T00:22:46.743Z,89.89
2019-04-14T00:23:45.689Z,89.79
2019-04-14T00:24:46.655Z,89.58
2019-04-14T00:25:45.550Z,89.31
2019-04-14T00:26:46.621Z,89.69
2019-04-14T00:27:45.508Z,89.69
2019-04-14T00:28:45.513Z,89.94
2019-04-14T00:29:45.828Z,89.58
2019-04-14T00:30:45.478Z,89.27
2019-04-14T00:31:45.620Z,88.85
2019-04-14T00:32:46.483Z,88.44
2019-04-14T00:33:45.442Z,88.59
2019-04-14T00:34:46.423Z,88.59
2019-04-14T00:35:45.438Z,88.38
2019-04-14T00:36:45.939Z,88.38
2019-04-14T00:37:46.549Z,89.37
2019-04-14T00:38:45.646Z,89.11
2019-04-14T00:39:46.557Z,89.11
2019-04-14T00:40:45.478Z,88.59
2019-04-14T00:41:51.902Z,89.11
2019-04-14T00:42:47.337Z,89.21
2019-04-14T00:43:46.045Z,89.42
2019-04-14T00:44:45.358Z,89.00
2019-04-14T00:45:51.191Z,88.90
2019-04-14T00:46:47.365Z,89.11
2019-04-14T00:47:57.427Z,89.21
2019-04-14T00:48:47.311Z,89.25
2019-04-14T00:49:46.289Z,89.11
2019-04-14T00:50:45.299Z,89.94
2019-04-14T00:51:46.095Z,89.73
2019-04-14T00:52:45.831Z,89.25
2019-04-14T00:53:45.222Z,89.04
2019-04-14T00:54:45.680Z,88.73
2019-04-14T00:55:46.368Z,89.25
2019-04-14T00:56:45.463Z,90.02
2019-04-14T00:57:46.309Z,89.87
2019-04-14T00:58:45.412Z,89.77
2019-04-14T00:59:46.287Z,90.19
2019-04-14T01:00:45.228Z,90.39
2019-04-14T01:01:45.933Z,90.50
2019-04-14T01:02:45.126Z,90.50
2019-04-14T01:03:45.906Z,91.12
2019-04-14T01:04:45.108Z,91.12
2019-04-14T01:05:45.919Z,90.39
2019-04-14T01:06:45.116Z,90.29
2019-04-14T01:07:45.560Z,90.64
2019-04-14T01:08:45.065Z,90.50
2019-04-14T01:09:46.274Z,91.22
2019-04-14T01:10:45.423Z,90.81
2019-04-14T01:11:46.405Z,91.16
2019-04-14T01:12:45.324Z,90.60
2019-04-14T01:13:46.159Z,90.70
2019-04-14T01:14:45.301Z,90.54
2019-04-14T01:15:54.640Z,90.12
2019-04-14T01:16:47.253Z,90.33
2019-04-14T01:17:45.996Z,90.39
2019-04-14T01:18:45.141Z,90.39
2019-04-14T01:19:46.000Z,90.44
2019-04-14T01:20:45.005Z,91.12
2019-04-14T01:21:45.757Z,91.12
2019-04-14T01:22:44.907Z,91.12
2019-04-14T01:23:45.536Z,90.64
2019-04-14T01:24:44.894Z,90.75
2019-04-14T01:25:45.315Z,91.33
2019-04-14T01:26:44.882Z,91.16
2019-04-14T01:27:45.140Z,91.12
2019-04-14T01:28:46.058Z,90.29
2019-04-14T01:29:44.920Z,90.23
2019-04-14T01:30:45.768Z,90.54
2019-04-14T01:31:44.830Z,90.44
2019-04-14T01:32:45.761Z,90.64
2019-04-14T01:33:44.783Z,90.54
2019-04-14T01:34:45.549Z,90.23
2019-04-14T01:35:44.781Z,90.85
2019-04-14T01:36:45.309Z,90.95
2019-04-14T01:37:44.740Z,91.02
2019-04-14T01:38:45.034Z,91.16
2019-04-14T01:39:45.945Z,91.12
2019-04-14T01:40:44.703Z,90.95
2019-04-14T01:41:45.640Z,91.22
2019-04-14T01:42:44.694Z,91.02
2019-04-14T01:43:45.239Z,91.22
2019-04-14T01:44:45.927Z,91.22
2019-04-14T01:45:46.176Z,90.50
2019-04-14T01:46:45.690Z,90.70
2019-04-14T01:47:44.649Z,90.29
2019-04-14T01:48:45.392Z,90.60
2019-04-14T01:49:44.610Z,90.50
2019-04-14T01:50:45.214Z,90.81
2019-04-14T01:51:44.587Z,90.29
2019-04-14T01:52:45.764Z,90.29
2019-04-14T01:53:44.655Z,90.33
2019-04-14T01:54:45.316Z,90.60
2019-04-14T01:55:44.536Z,90.50
2019-04-14T01:56:44.967Z,90.29
2019-04-14T01:57:44.571Z,91.02
2019-04-14T01:58:44.754Z,91.33
2019-04-14T01:59:44.495Z,91.53
2019-04-14T02:00:44.581Z,91.53
2019-04-14T02:01:45.648Z,91.74
2019-04-14T02:02:44.499Z,91.43
2019-04-14T02:03:45.562Z,90.91
2019-04-14T02:04:44.459Z,89.87
2019-04-14T02:05:45.326Z,89.87
2019-04-14T02:06:44.425Z,90.70
2019-04-14T02:07:45.177Z,91.53
2019-04-14T02:08:45.725Z,91.64
2019-04-14T02:09:44.718Z,91.53
2019-04-14T02:10:45.622Z,91.43
2019-04-14T02:11:44.556Z,91.02
2019-04-14T02:12:45.235Z,91.33
2019-04-14T02:13:44.360Z,90.29
2019-04-14T02:14:45.147Z,90.12
2019-04-14T02:15:44.339Z,90.60
2019-04-14T02:16:49.821Z,90.60
2019-04-14T02:17:46.083Z,91.53
2019-04-14T02:18:44.913Z,91.22
2019-04-14T02:19:44.273Z,90.70
2019-04-14T02:20:44.739Z,90.29
2019-04-14T02:21:45.506Z,90.39
2019-04-14T02:22:44.260Z,90.44
2019-04-14T02:23:45.324Z,91.33
2019-04-14T02:24:44.226Z,90.29
2019-04-14T02:25:45.027Z,90.29
2019-04-14T02:26:44.209Z,90.50
2019-04-14T02:27:45.099Z,90.19
2019-04-14T02:28:44.203Z,89.15
2019-04-14T02:29:45.124Z,90.19
2019-04-14T02:30:53.781Z,90.50
2019-04-14T02:32:11.451Z,90.54
2019-04-14T02:33:17.156Z,91.37
2019-04-14T02:34:17.464Z,91.16
2019-04-14T02:35:13.616Z,90.91
2019-04-14T02:36:21.892Z,90.50
2019-04-14T02:37:10.793Z,90.81
2019-04-14T02:38:38.821Z,91.43
2019-04-14T02:39:15.543Z,91.43
2019-04-14T02:43:12.830Z,90.60
2019-04-14T02:44:16.095Z,90.08
2019-04-14T02:45:19.776Z,90.50
2019-04-14T02:46:15.744Z,91.12
2019-04-14T02:47:39.334Z,91.12
2019-04-14T02:48:39.694Z,91.43
2019-04-14T02:49:31.142Z,90.70
2019-04-14T02:51:13.810Z,90.39
2019-04-14T02:52:12.359Z,91.16
2019-04-14T02:53:18.424Z,90.50
2019-04-14T02:54:14.293Z,90.29
2019-04-14T02:55:21.317Z,90.70
2019-04-14T02:56:16.070Z,91.12
2019-04-14T02:57:26.783Z,91.43
2019-04-14T02:58:10.218Z,91.02
2019-04-14T02:59:29.110Z,90.70
2019-04-14T03:00:19.658Z,91.16
2019-04-14T03:01:19.421Z,91.02
2019-04-14T03:03:16.819Z,90.50
2019-04-14T03:04:04.049Z,89.98
2019-04-14T03:05:09.739Z,90.29
2019-04-14T03:06:33.552Z,90.29
2019-04-14T03:07:15.920Z,90.50
2019-04-14T03:08:13.103Z,89.87
2019-04-14T03:10:13.094Z,89.67
2019-04-14T03:11:18.680Z,89.98
2019-04-14T03:12:14.563Z,89.87
2019-04-14T03:13:15.703Z,90.08
2019-04-14T03:15:07.031Z,90.50
2019-04-14T03:16:15.534Z,90.29
2019-04-14T03:18:26.275Z,90.29
2019-04-14T03:19:06.766Z,89.87
2019-04-14T03:20:30.187Z,90.50
2019-04-14T03:21:15.567Z,89.77
2019-04-14T03:22:23.619Z,90.02
2019-04-14T03:24:12.752Z,90.08
2019-04-14T03:25:02.737Z,90.91
2019-04-14T03:26:08.323Z,91.12
2019-04-14T03:27:13.541Z,90.64
2019-04-14T03:28:11.266Z,90.70
2019-04-14T03:29:08.786Z,91.22
2019-04-14T03:30:32.901Z,90.60
2019-04-14T03:32:23.089Z,90.19
2019-04-14T03:34:21.287Z,90.50
2019-04-14T03:35:47.846Z,90.60
2019-04-14T03:36:59.774Z,90.29
2019-04-14T03:38:17.107Z,90.08
2019-04-14T03:39:09.786Z,90.29
2019-04-14T03:40:08.831Z,90.29
2019-04-14T03:41:17.471Z,90.19
2019-04-14T03:42:13.185Z,90.44
2019-04-14T03:43:33.769Z,90.29
2019-04-14T03:44:10.062Z,90.54
2019-04-14T03:45:14.277Z,90.60
2019-04-14T03:47:13.697Z,90.50
2019-04-14T03:49:32.302Z,90.60
2019-04-14T03:50:09.658Z,90.19
2019-04-14T03:51:16.681Z,90.39
2019-04-14T03:52:02.428Z,90.50
2019-04-14T03:53:17.523Z,89.60
2019-04-14T03:54:03.431Z,89.56
2019-04-14T03:55:02.695Z,89.67
2019-04-14T03:55:49.114Z,89.56
2019-04-14T03:56:44.320Z,89.36
2019-04-14T03:57:43.397Z,89.46
2019-04-14T03:58:44.332Z,89.67
2019-04-14T03:59:43.466Z,89.77
2019-04-14T04:00:44.272Z,89.98
2019-04-14T04:01:43.526Z,89.77
2019-04-14T04:02:44.413Z,90.08
2019-04-14T04:03:43.572Z,90.08
2019-04-14T04:04:43.125Z,90.29
2019-04-14T04:05:43.477Z,89.36
2019-04-14T04:06:44.163Z,89.15
2019-04-14T04:07:43.239Z,89.56
2019-04-14T04:08:44.113Z,89.29
2019-04-14T04:09:43.386Z,89.87
2019-04-14T04:10:44.262Z,89.67
2019-04-14T04:11:43.453Z,90.19
2019-04-14T04:12:44.284Z,89.92
2019-04-14T04:13:43.359Z,89.56
2019-04-14T04:14:44.110Z,89.77
2019-04-14T04:15:43.225Z,89.25
2019-04-14T04:16:43.964Z,89.56
2019-04-14T04:17:43.079Z,89.77
2019-04-14T04:18:50.896Z,89.77
2019-04-14T04:19:44.772Z,89.87
2019-04-14T04:20:43.463Z,89.25
2019-04-14T04:21:42.995Z,88.94
2019-04-14T04:22:43.450Z,89.25
2019-04-14T04:23:42.925Z,89.25
2019-04-14T04:24:43.308Z,89.56
2019-04-14T04:25:42.887Z,88.98
2019-04-14T04:26:43.016Z,89.39
2019-04-14T04:27:43.995Z,89.77
2019-04-14T04:28:42.913Z,89.36
2019-04-14T04:29:44.025Z,89.18
2019-04-14T04:30:42.843Z,89.50
2019-04-14T04:31:43.948Z,88.67
2019-04-14T04:32:42.813Z,88.84
2019-04-14T04:33:43.674Z,88.98
2019-04-14T04:34:42.818Z,88.87
2019-04-14T04:35:43.607Z,88.98
2019-04-14T04:36:42.776Z,88.98
2019-04-14T04:37:43.354Z,89.50
2019-04-14T04:38:42.745Z,89.15
2019-04-14T04:39:43.287Z,89.15
2019-04-14T04:40:43.901Z,89.08
2019-04-14T04:41:42.901Z,88.77
2019-04-14T04:42:43.687Z,89.08
2019-04-14T04:43:43.000Z,89.18
2019-04-14T04:44:42.683Z,88.56
2019-04-14T04:45:43.102Z,89.39
2019-04-14T04:46:43.714Z,88.98
2019-04-14T04:47:42.716Z,88.46
2019-04-14T04:48:43.716Z,88.46
2019-04-14T04:49:42.734Z,88.67
2019-04-14T04:50:43.140Z,88.87
2019-04-14T04:51:42.605Z,88.87
2019-04-14T04:52:42.927Z,89.29
2019-04-14T04:53:42.579Z,89.18
2019-04-14T04:54:42.840Z,89.29
2019-04-14T04:55:43.788Z,89.18
2019-04-14T04:56:42.735Z,89.18
2019-04-14T04:57:43.617Z,89.60
2019-04-14T04:58:43.483Z,88.77
2019-04-14T04:59:43.081Z,88.84
2019-04-14T05:00:43.809Z,88.56
2019-04-14T05:01:42.918Z,87.52
2019-04-14T05:02:42.487Z,88.15
2019-04-14T05:03:42.804Z,87.73
2019-04-14T05:04:43.726Z,88.35
2019-04-14T05:05:42.739Z,88.46
2019-04-14T05:06:43.639Z,87.52
2019-04-14T05:07:42.699Z,87.52
2019-04-14T05:08:43.445Z,87.63
2019-04-14T05:09:42.735Z,87.42
2019-04-14T05:10:43.544Z,87.11
2019-04-14T05:11:42.668Z,87.52
2019-04-14T05:12:43.534Z,88.56
2019-04-14T05:13:42.492Z,88.46
2019-04-14T05:14:43.378Z,88.56
2019-04-14T05:15:42.472Z,88.35
2019-04-14T05:16:42.332Z,88.56
2019-04-14T05:17:43.105Z,88.56
2019-04-14T05:18:42.328Z,86.80
2019-04-14T05:19:43.498Z,87.11
2019-04-14T05:20:42.304Z,87.52
2019-04-14T05:21:43.069Z,88.15
2019-04-14T05:22:42.262Z,86.90
2019-04-14T05:23:43.133Z,86.90
2019-04-14T05:24:42.247Z,86.90
2019-04-14T05:25:43.023Z,87.32
2019-04-14T05:26:42.224Z,87.38
2019-04-14T05:27:43.047Z,87.27
2019-04-14T05:28:42.244Z,87.07
2019-04-14T05:29:43.030Z,86.96
2019-04-14T05:30:42.178Z,87.27
2019-04-14T05:31:42.583Z,87.69
2019-04-14T05:32:43.349Z,87.27
2019-04-14T05:33:42.577Z,87.11
2019-04-14T05:34:43.149Z,87.48
2019-04-14T05:35:42.392Z,87.17
2019-04-14T05:36:43.196Z,86.86
2019-04-14T05:37:42.182Z,87.17
2019-04-14T05:38:42.852Z,86.76
2019-04-14T05:39:42.137Z,87.17
2019-04-14T05:40:42.913Z,86.93
2019-04-14T05:41:54.985Z,86.30
2019-04-14T05:42:43.041Z,86.51
2019-04-14T05:43:48.793Z,85.68
2019-04-14T05:44:43.057Z,86.93
2019-04-14T05:45:42.034Z,86.09
2019-04-14T05:46:42.481Z,85.68
2019-04-14T05:47:41.991Z,86.16
2019-04-14T05:48:42.516Z,86.16
2019-04-14T05:49:46.869Z,85.43
2019-04-14T05:50:42.994Z,84.39
2019-04-14T05:51:41.946Z,84.70
2019-04-14T05:52:42.596Z,84.70
2019-04-14T05:53:41.925Z,85.22
2019-04-14T05:54:42.541Z,83.87
2019-04-14T05:55:41.922Z,84.60
2019-04-14T05:56:42.550Z,84.60
2019-04-14T05:57:41.889Z,84.25
2019-04-14T05:58:42.501Z,84.77
2019-04-14T05:59:41.928Z,84.36
2019-04-14T06:00:42.132Z,83.17
2019-04-14T06:01:42.121Z,83.22
2019-04-14T06:02:42.031Z,83.32
2019-04-14T06:03:43.140Z,83.32
2019-04-14T06:04:41.840Z,83.17
2019-04-14T06:05:42.830Z,82.97
2019-04-14T06:06:41.782Z,82.65
2019-04-14T06:07:41.788Z,82.34
2019-04-14T06:08:41.754Z,82.72
2019-04-14T06:09:41.774Z,82.62
2019-04-14T06:10:41.750Z,82.51
2019-04-14T06:11:41.735Z,81.37
2019-04-14T06:12:41.715Z,80.75
2019-04-14T06:13:41.724Z,81.89
2019-04-14T06:14:41.690Z,82.10
2019-04-14T06:15:41.713Z,81.34
2019-04-14T06:16:41.675Z,81.23
2019-04-14T06:17:41.654Z,81.44
2019-04-14T06:18:41.673Z,81.54
2019-04-14T06:19:41.631Z,80.71
2019-04-14T06:20:41.653Z,80.88
2019-04-14T06:21:41.612Z,80.78
2019-04-14T06:22:41.606Z,79.13
2019-04-14T06:23:41.587Z,79.33
2019-04-14T06:24:41.585Z,79.64
2019-04-14T06:25:41.606Z,79.54
2019-04-14T06:26:41.578Z,80.02
2019-04-14T06:27:41.542Z,79.30
2019-04-14T06:28:41.569Z,78.95
2019-04-14T06:29:41.523Z,79.57
2019-04-14T06:30:41.533Z,79.60
2019-04-14T06:31:41.539Z,77.81
2019-04-14T06:32:41.510Z,79.77
2019-04-14T06:33:41.489Z,78.43
2019-04-14T06:34:41.482Z,77.05
2019-04-14T06:35:41.456Z,76.43
2019-04-14T06:36:41.479Z,77.05
2019-04-14T06:37:41.439Z,76.12
2019-04-14T06:38:41.424Z,75.36
2019-04-14T06:39:41.459Z,74.67
2019-04-14T06:40:41.409Z,72.88
2019-04-14T06:41:41.430Z,75.15
2019-04-14T06:42:41.396Z,73.81
2019-04-14T06:43:48.683Z,74.43
2019-04-14T06:44:42.393Z,73.91
2019-04-14T06:45:41.396Z,73.60
2019-04-14T06:46:41.372Z,73.91
2019-04-14T06:47:41.349Z,74.22
2019-04-14T06:48:41.330Z,74.02
2019-04-14T06:49:48.727Z,75.26
2019-04-14T06:50:42.301Z,73.50
2019-04-14T06:51:41.295Z,73.81
2019-04-14T06:52:41.344Z,73.88
2019-04-14T06:53:41.276Z,72.98
2019-04-14T06:54:41.261Z,73.16
2019-04-14T06:55:41.265Z,73.05
2019-04-14T06:56:41.327Z,71.92
2019-04-14T06:57:41.250Z,72.74
2019-04-14T06:58:41.218Z,72.85
2019-04-14T06:59:41.206Z,72.43
2019-04-14T07:00:41.195Z,71.40
2019-04-14T07:01:41.205Z,71.71
2019-04-14T07:02:41.240Z,73.16
2019-04-14T07:03:41.150Z,72.95
2019-04-14T07:04:41.153Z,72.64
2019-04-14T07:05:41.155Z,71.57
2019-04-14T07:06:41.129Z,71.37
2019-04-14T07:07:41.121Z,72.50
2019-04-14T07:08:41.123Z,72.40
2019-04-14T07:09:41.094Z,73.12
2019-04-14T07:10:41.089Z,71.57
2019-04-14T07:11:41.065Z,70.40
2019-04-14T07:12:42.989Z,70.92
2019-04-14T07:13:41.084Z,70.51
2019-04-14T07:14:41.082Z,70.61
2019-04-14T07:15:41.044Z,71.12
2019-04-14T07:16:41.009Z,71.81
2019-04-14T07:17:41.020Z,72.13
2019-04-14T07:18:41.034Z,71.30
2019-04-14T07:19:41.014Z,70.99
2019-04-14T07:20:40.982Z,71.26
2019-04-14T07:21:40.961Z,71.37
2019-04-14T07:22:40.983Z,70.41
2019-04-14T07:23:40.934Z,70.00
2019-04-14T07:24:40.926Z,68.55
2019-04-14T07:25:40.940Z,69.59
2019-04-14T07:26:40.895Z,67.00
2019-04-14T07:27:40.930Z,67.00
2019-04-14T07:28:40.882Z,66.83
2019-04-14T07:29:40.863Z,69.00
2019-04-14T07:30:40.866Z,68.17
2019-04-14T07:31:40.872Z,66.52
2019-04-14T07:32:40.854Z,68.48
2019-04-14T07:33:40.826Z,68.96
2019-04-14T07:34:40.822Z,67.93
2019-04-14T07:35:40.856Z,68.14
2019-04-14T07:36:40.789Z,68.55
2019-04-14T07:37:40.784Z,67.32
2019-04-14T07:38:40.788Z,66.60
2019-04-14T07:39:40.753Z,66.70
2019-04-14T07:40:40.751Z,66.70
2019-04-14T07:41:40.738Z,66.60
2019-04-14T07:42:40.722Z,66.70
2019-04-14T07:43:40.749Z,67.11
2019-04-14T07:44:40.710Z,66.60
2019-04-14T07:45:40.689Z,66.49
2019-04-14T07:46:40.680Z,66.18
2019-04-14T07:47:40.683Z,66.36
2019-04-14T07:48:40.703Z,66.46
2019-04-14T07:49:40.657Z,66.36
2019-04-14T07:50:40.651Z,63.99
2019-04-14T07:51:40.628Z,64.78
2019-04-14T07:52:40.617Z,65.19
2019-04-14T07:53:40.628Z,64.65
2019-04-14T07:54:41.387Z,66.19
2019-04-14T07:55:40.588Z,63.82
2019-04-14T07:56:40.574Z,64.96
2019-04-14T07:57:40.571Z,65.16
2019-04-14T07:58:40.566Z,64.86
2019-04-14T07:59:40.532Z,64.72
2019-04-14T08:00:40.533Z,64.11
2019-04-14T08:01:40.523Z,65.13
2019-04-14T08:02:40.502Z,64.11
2019-04-14T08:03:40.503Z,64.00
2019-04-14T08:04:40.487Z,62.56
2019-04-14T08:05:40.472Z,62.95
2019-04-14T08:06:40.459Z,63.56
2019-04-14T08:07:40.466Z,63.67
2019-04-14T08:08:40.467Z,64.79
2019-04-14T08:09:40.435Z,65.17
2019-04-14T08:10:40.425Z,64.66
2019-04-14T08:11:40.410Z,61.44
2019-04-14T08:12:40.392Z,61.37
2019-04-14T08:13:40.405Z,62.09
2019-04-14T08:14:40.372Z,62.06
2019-04-14T08:15:40.400Z,63.60
2019-04-14T08:16:40.368Z,61.72
2019-04-14T08:17:40.342Z,63.17
2019-04-14T08:18:40.374Z,61.60
2019-04-14T08:19:40.376Z,61.49
2019-04-14T08:20:40.308Z,61.67
2019-04-14T08:21:40.296Z,62.80
2019-04-14T08:22:40.289Z,60.23
2019-04-14T08:23:40.310Z,60.00
2019-04-14T08:24:40.299Z,61.74
2019-04-14T08:25:40.263Z,61.95
2019-04-14T08:26:40.235Z,58.56
2019-04-14T08:27:40.233Z,58.74
2019-04-14T08:28:40.221Z,57.00
2019-04-14T08:29:40.222Z,61.30
2019-04-14T08:30:40.210Z,57.51
2019-04-14T08:31:40.200Z,57.20
2019-04-14T08:32:40.179Z,57.28
2019-04-14T08:33:40.166Z,57.61
2019-04-14T08:34:40.168Z,58.51
2019-04-14T08:35:40.142Z,59.12
2019-04-14T08:36:40.130Z,56.77
2019-04-14T08:37:40.118Z,57.56
2019-04-14T08:38:40.113Z,57.15
2019-04-14T08:39:40.119Z,57.56
2019-04-14T08:40:40.092Z,56.51
2019-04-14T08:41:40.079Z,58.07
2019-04-14T08:42:40.071Z,58.97
2019-04-14T08:43:40.064Z,57.64
2019-04-14T08:44:40.068Z,54.67
2019-04-14T08:45:40.113Z,54.57
2019-04-14T08:46:40.045Z,53.44
2019-04-14T08:47:40.027Z,55.92
2019-04-14T08:48:39.994Z,57.53
2019-04-14T08:49:40.007Z,54.97
2019-04-14T08:50:40.021Z,53.26
2019-04-14T08:51:39.964Z,53.97
2019-04-14T08:52:39.954Z,54.79
2019-04-14T08:53:39.937Z,55.08
2019-04-14T08:54:39.970Z,54.87
2019-04-14T08:55:39.920Z,56.30
2019-04-14T08:56:39.909Z,54.46
2019-04-14T08:57:39.898Z,50.85
2019-04-14T08:58:39.890Z,55.56
2019-04-14T08:59:39.871Z,56.18
2019-04-14T09:00:39.886Z,53.28
2019-04-14T09:01:39.857Z,53.49
2019-04-14T09:02:39.855Z,54.92
2019-04-14T09:03:39.832Z,52.44
2019-04-14T09:04:39.821Z,52.14
2019-04-14T09:05:39.843Z,52.14
2019-04-14T09:06:39.802Z,51.42
2019-04-14T09:07:39.782Z,50.68
2019-04-14T09:08:39.774Z,50.58
2019-04-14T09:09:39.781Z,49.13
2019-04-14T09:10:39.796Z,49.43
2019-04-14T09:11:39.752Z,50.56
2019-04-14T09:12:39.733Z,48.92
2019-04-14T09:13:39.732Z,47.88
2019-04-14T09:14:39.717Z,49.62
2019-04-14T09:15:39.729Z,49.21
2019-04-14T09:16:39.715Z,48.08
2019-04-14T09:17:39.694Z,49.08
2019-04-14T09:18:39.673Z,46.94
2019-04-14T09:19:39.665Z,48.06
2019-04-14T09:20:51.359Z,47.24
2019-04-14T09:21:40.726Z,46.12
2019-04-14T09:22:39.634Z,45.18
2019-04-14T09:23:39.613Z,48.03
2019-04-14T09:24:39.691Z,46.43
2019-04-14T09:25:39.625Z,44.16
2019-04-14T09:26:39.630Z,47.75
2019-04-14T09:27:39.576Z,48.44
2019-04-14T09:28:39.552Z,48.44
2019-04-14T09:29:39.555Z,46.61
2019-04-14T09:30:39.554Z,45.47
2019-04-14T09:31:39.566Z,46.79
2019-04-14T09:32:39.507Z,45.06
2019-04-14T09:33:39.524Z,44.85
2019-04-14T09:34:39.494Z,45.87
2019-04-14T09:35:39.492Z,43.53
2019-04-14T09:36:39.484Z,43.96
2019-04-14T09:37:39.465Z,44.87
2019-04-14T09:38:39.453Z,45.16
2019-04-14T09:39:39.434Z,44.55
2019-04-14T09:40:39.432Z,45.06
2019-04-14T09:41:39.461Z,47.00
2019-04-14T09:42:39.421Z,48.02
2019-04-14T09:43:39.390Z,46.18
2019-04-14T09:44:39.382Z,47.17
2019-04-14T09:45:39.378Z,46.77
2019-04-14T09:46:39.376Z,42.90
2019-04-14T09:47:39.402Z,43.10
2019-04-14T09:48:39.365Z,44.51
2019-04-14T09:49:39.321Z,46.34
2019-04-14T09:50:39.330Z,43.79
2019-04-14T09:51:39.334Z,44.51
2019-04-14T09:52:39.323Z,42.76
2019-04-14T09:53:39.291Z,40.60
2019-04-14T09:54:39.259Z,43.02
2019-04-14T09:55:39.258Z,44.34
2019-04-14T09:56:39.261Z,40.99
2019-04-14T09:57:39.227Z,39.85
2019-04-14T09:58:39.222Z,40.46
2019-04-14T09:59:39.211Z,40.97
2019-04-14T10:00:39.220Z,42.49
2019-04-14T10:01:39.203Z,43.12
2019-04-14T10:02:39.213Z,41.39
2019-04-14T10:03:39.172Z,44.02
2019-04-14T10:04:39.147Z,42.51
2019-04-14T10:05:39.151Z,43.00
2019-04-14T10:06:40.899Z,41.70
2019-04-14T10:07:39.153Z,42.51
2019-04-14T10:08:39.114Z,40.78
2019-04-14T10:09:39.092Z,40.88
2019-04-14T10:10:39.085Z,42.41
2019-04-14T10:11:48.431Z,40.37
2019-04-14T10:12:40.082Z,42.51
2019-04-14T10:13:39.050Z,42.00
2019-04-14T10:14:39.046Z,41.90
2019-04-14T10:15:39.033Z,42.63
2019-04-14T10:16:39.021Z,39.48
2019-04-14T10:17:39.029Z,41.70
2019-04-14T10:18:39.029Z,40.58
2019-04-14T10:19:38.984Z,39.76
2019-04-14T10:20:38.980Z,41.90
2019-04-14T10:21:38.964Z,41.80
2019-04-14T10:22:38.976Z,40.78
2019-04-14T10:23:39.601Z,41.70
2019-04-14T10:24:38.933Z,42.41
2019-04-14T10:25:38.930Z,42.61
2019-04-14T10:26:38.916Z,41.49
2019-04-14T10:27:38.893Z,40.58
2019-04-14T10:28:38.910Z,40.37
2019-04-14T10:29:38.896Z,42.61
2019-04-14T10:30:38.868Z,42.39
2019-04-14T10:31:38.861Z,41.17
2019-04-14T10:32:38.864Z,41.17
2019-04-14T10:33:38.850Z,40.97
2019-04-14T10:34:38.820Z,39.44
2019-04-14T10:35:38.833Z,40.86
2019-04-14T10:36:38.814Z,39.34
2019-04-14T10:37:38.786Z,39.87
2019-04-14T10:38:38.797Z,41.99
2019-04-14T10:39:38.771Z,42.59
2019-04-14T10:40:38.768Z,42.49
2019-04-14T10:41:38.762Z,39.95
2019-04-14T10:42:38.762Z,42.27
2019-04-14T10:43:38.761Z,40.03
2019-04-14T10:44:38.732Z,41.66
2019-04-14T10:45:38.696Z,40.95
2019-04-14T10:46:38.695Z,40.64
2019-04-14T10:47:38.686Z,40.95
2019-04-14T10:48:38.800Z,39.93
2019-04-14T10:49:38.654Z,39.22
2019-04-14T10:50:38.684Z,39.62
2019-04-14T10:51:38.636Z,38.51
2019-04-14T10:52:38.646Z,37.82
2019-04-14T10:53:38.637Z,41.86
2019-04-14T10:54:38.634Z,38.43
2019-04-14T10:55:38.605Z,38.53
2019-04-14T10:56:38.578Z,41.27
2019-04-14T10:57:38.565Z,39.54
2019-04-14T10:58:38.579Z,39.75
2019-04-14T10:59:38.580Z,37.41
2019-04-14T11:00:38.533Z,38.83
2019-04-14T11:01:38.536Z,41.88
2019-04-14T11:02:38.520Z,39.44
2019-04-14T11:03:38.548Z,39.85
2019-04-14T11:04:38.510Z,40.14
2019-04-14T11:05:38.477Z,39.62
2019-04-14T11:06:38.490Z,41.46
2019-04-14T11:07:38.454Z,37.59
2019-04-14T11:08:38.451Z,36.78
2019-04-14T11:09:38.456Z,36.88
2019-04-14T11:10:38.443Z,37.19
2019-04-14T11:11:38.421Z,37.80
2019-04-14T11:12:38.408Z,38.00
2019-04-14T11:13:38.403Z,36.60
2019-04-14T11:14:38.445Z,37.61
2019-04-14T11:15:38.386Z,36.80
2019-04-14T11:16:38.361Z,37.12
2019-04-14T11:17:38.346Z,36.00
2019-04-14T11:18:38.361Z,38.87
2019-04-14T11:19:38.441Z,38.45
2019-04-14T11:20:38.319Z,37.85
2019-04-14T11:21:42.846Z,37.04
2019-04-14T11:22:38.318Z,38.15
2019-04-14T11:23:38.316Z,37.45
2019-04-14T11:24:38.362Z,35.83
2019-04-14T11:25:38.267Z,37.77
2019-04-14T11:26:38.249Z,37.36
2019-04-14T11:27:38.260Z,35.22
2019-04-14T11:28:38.231Z,36.46
2019-04-14T11:29:38.220Z,36.77
2019-04-14T11:30:38.233Z,37.90
2019-04-14T11:31:38.211Z,37.27
2019-04-14T11:32:38.200Z,37.70
2019-04-14T11:33:38.205Z,38.31
2019-04-14T11:34:38.173Z,38.51
2019-04-14T11:35:38.193Z,38.62
2019-04-14T11:36:38.162Z,39.53
2019-04-14T11:37:38.130Z,39.74
2019-04-14T11:38:38.122Z,38.19
2019-04-14T11:39:38.122Z,37.40
2019-04-14T11:40:38.118Z,36.88
2019-04-14T11:41:38.085Z,39.62
2019-04-14T11:42:38.088Z,39.03
2019-04-14T11:43:38.076Z,36.16
2019-04-14T11:44:38.072Z,38.40
2019-04-14T11:45:38.119Z,39.31
2019-04-14T11:46:38.042Z,38.19
2019-04-14T11:47:38.102Z,38.29
2019-04-14T11:48:38.008Z,39.51
2019-04-14T11:49:37.990Z,37.87
2019-04-14T11:50:38.002Z,37.36
2019-04-14T11:51:37.988Z,36.85
2019-04-14T11:52:37.955Z,40.01
2019-04-14T11:53:37.960Z,38.67
2019-04-14T11:54:37.951Z,38.36
2019-04-14T11:55:37.952Z,38.85
2019-04-14T11:56:37.933Z,39.06
2019-04-14T11:57:37.954Z,37.10
2019-04-14T11:58:37.903Z,38.73
2019-04-14T11:59:37.878Z,39.54
2019-04-14T12:00:37.880Z,37.61
2019-04-14T12:01:37.881Z,37.73
2019-04-14T12:02:37.919Z,36.21
2019-04-14T12:03:37.847Z,36.31
2019-04-14T12:04:37.837Z,36.71
2019-04-14T12:05:37.815Z,39.44
2019-04-14T12:06:37.803Z,39.14
2019-04-14T12:07:37.818Z,38.43
2019-04-14T12:08:37.796Z,39.14
2019-04-14T12:09:37.768Z,37.49
2019-04-14T12:10:37.775Z,39.02
2019-04-14T12:11:37.770Z,38.92
2019-04-14T12:12:37.765Z,39.53
2019-04-14T12:13:37.749Z,37.49
2019-04-14T12:14:37.725Z,40.62
2019-04-14T12:15:37.701Z,37.29
2019-04-14T12:16:37.732Z,36.38
2019-04-14T12:17:37.680Z,37.07
2019-04-14T12:18:37.687Z,38.49
2019-04-14T12:19:37.717Z,36.47
2019-04-14T12:20:37.655Z,36.47
2019-04-14T12:21:37.813Z,36.60
2019-04-14T12:22:37.628Z,35.99
2019-04-14T12:23:37.622Z,36.19
2019-04-14T12:24:37.605Z,37.61
2019-04-14T12:25:37.626Z,39.04
2019-04-14T12:26:37.597Z,37.41
2019-04-14T12:27:37.584Z,36.90
2019-04-14T12:28:38.328Z,37.08
2019-04-14T12:29:37.555Z,37.39
2019-04-14T12:30:37.786Z,38.92
2019-04-14T12:31:37.547Z,39.51
2019-04-14T12:32:37.542Z,37.39
2019-04-14T12:33:37.505Z,37.08
2019-04-14T12:34:37.521Z,36.88
2019-04-14T12:35:37.514Z,35.36
2019-04-14T12:36:37.511Z,37.49
2019-04-14T12:37:37.471Z,36.78
2019-04-14T12:38:37.462Z,37.08
2019-04-14T12:39:37.444Z,38.61
2019-04-14T12:40:37.452Z,37.59
2019-04-14T12:41:37.702Z,38.79
2019-04-14T12:42:37.428Z,36.38
2019-04-14T12:43:37.397Z,37.39
2019-04-14T12:44:37.388Z,36.66
2019-04-14T12:45:37.399Z,38.18
2019-04-14T12:46:37.426Z,37.46
2019-04-14T12:47:40.439Z,37.15
2019-04-14T12:48:37.348Z,37.26
2019-04-14T12:49:37.333Z,36.44
2019-04-14T12:50:37.342Z,36.56
2019-04-14T12:51:37.308Z,36.66
2019-04-14T12:52:37.314Z,37.49
2019-04-14T12:53:37.295Z,37.17
2019-04-14T12:54:37.289Z,37.27
2019-04-14T12:55:37.268Z,39.00
2019-04-14T12:56:37.272Z,38.39
2019-04-14T12:57:37.257Z,39.39
2019-04-14T12:58:37.232Z,37.26
2019-04-14T12:59:37.228Z,37.56
2019-04-14T13:00:37.209Z,38.47
2019-04-14T13:01:37.205Z,36.34
2019-04-14T13:02:37.220Z,34.21
2019-04-14T13:03:37.189Z,34.41
2019-04-14T13:04:37.184Z,34.11
2019-04-14T13:05:37.162Z,34.53
2019-04-14T13:06:37.152Z,34.22